Map

Track Data

SID SEASON NUMBER BASIN SUBBASIN NAME ISO_TIME NATURE LAT LON WMO_WIND WMO_PRES WMO_AGENCY TRACK_TYPE DIST2LAND LANDFALL IFLAG USA_AGENCY USA_ATCF_ID USA_LAT USA_LON USA_RECORD USA_STATUS USA_WIND USA_PRES USA_SSHS USA_R34_NE USA_R34_SE USA_R34_SW USA_R34_NW USA_R50_NE USA_R50_SE USA_R50_SW USA_R50_NW USA_R64_NE USA_R64_SE USA_R64_SW USA_R64_NW USA_POCI USA_ROCI USA_RMW USA_EYE TOKYO_LAT TOKYO_LON TOKYO_GRADE TOKYO_WIND TOKYO_PRES TOKYO_R50_DIR TOKYO_R50_LONG TOKYO_R50_SHORT TOKYO_R30_DIR TOKYO_R30_LONG TOKYO_R30_SHORT TOKYO_LAND CMA_LAT CMA_LON CMA_CAT CMA_WIND CMA_PRES HKO_LAT HKO_LON HKO_CAT HKO_WIND HKO_PRES NEWDELHI_LAT NEWDELHI_LON NEWDELHI_GRADE NEWDELHI_WIND NEWDELHI_PRES NEWDELHI_CI NEWDELHI_DP NEWDELHI_POCI REUNION_LAT REUNION_LON REUNION_TYPE REUNION_WIND REUNION_PRES REUNION_TNUM REUNION_CI REUNION_RMW REUNION_R34_NE REUNION_R34_SE REUNION_R34_SW REUNION_R34_NW REUNION_R50_NE REUNION_R50_SE REUNION_R50_SW REUNION_R50_NW REUNION_R64_NE REUNION_R64_SE REUNION_R64_SW REUNION_R64_NW BOM_LAT BOM_LON BOM_TYPE BOM_WIND BOM_PRES BOM_TNUM BOM_CI BOM_RMW BOM_R34_NE BOM_R34_SE BOM_R34_SW BOM_R34_NW BOM_R50_NE BOM_R50_SE BOM_R50_SW BOM_R50_NW BOM_R64_NE BOM_R64_SE BOM_R64_SW BOM_R64_NW BOM_ROCI BOM_POCI BOM_EYE BOM_POS_METHOD BOM_PRES_METHOD NADI_LAT NADI_LON NADI_CAT NADI_WIND NADI_PRES WELLINGTON_LAT WELLINGTON_LON WELLINGTON_WIND WELLINGTON_PRES DS824_LAT DS824_LON DS824_STAGE DS824_WIND DS824_PRES TD9636_LAT TD9636_LON TD9636_STAGE TD9636_WIND TD9636_PRES TD9635_LAT TD9635_LON TD9635_WIND TD9635_PRES TD9635_ROCI NEUMANN_LAT NEUMANN_LON NEUMANN_CLASS NEUMANN_WIND NEUMANN_PRES MLC_LAT MLC_LON MLC_CLASS MLC_WIND MLC_PRES USA_GUST BOM_GUST BOM_GUST_PER REUNION_GUST REUNION_GUST_PER USA_SEAHGT USA_SEARAD_NE USA_SEARAD_SE USA_SEARAD_SW USA_SEARAD_NW STORM_SPEED STORM_DIR
1895275N17277 1895 40 NA CS NOT_NAMED 1895-10-02 00:00:00 TS 17.4000 -82.9000 35 hurdat_atl main 233 218 O_____________ hurdat_atl AL041895 17.4000 -82.9000 TS 35 0 8 292
1895275N17277 1895 40 NA CS NOT_NAMED 1895-10-02 03:00:00 TS 17.5501 -83.2899 main 227 218 P_____________ AL041895 17.5501 -83.2899 TS 35 0 8 291
1895275N17277 1895 40 NA CS NOT_NAMED 1895-10-02 06:00:00 TS 17.7000 -83.7000 35 hurdat_atl main 222 219 O_____________ hurdat_atl AL041895 17.7000 -83.7000 TS 35 0 9 290
1895275N17277 1895 40 NA CS NOT_NAMED 1895-10-02 09:00:00 TS 17.8499 -84.1426 main 222 222 P_____________ AL041895 17.8499 -84.1426 TS 35 0 9 289
1895275N17277 1895 40 NA CS NOT_NAMED 1895-10-02 12:00:00 TS 18.0000 -84.6000 35 hurdat_atl main 235 235 O_____________ hurdat_atl AL041895 18.0000 -84.6000 TS 35 0 9 289
1895275N17277 1895 40 NA CS NOT_NAMED 1895-10-02 15:00:00 TS 18.1499 -85.0576 main 246 231 P_____________ AL041895 18.1499 -85.0576 TS 35 0 9 289
1895275N17277 1895 40 NA CS NOT_NAMED 1895-10-02 18:00:00 TS 18.3000 -85.5000 35 hurdat_atl main 231 187 O_____________ hurdat_atl AL041895 18.3000 -85.5000 TS 35 0 9 290
1895275N17277 1895 40 NA CS NOT_NAMED 1895-10-02 21:00:00 TS 18.4423 -85.9002 main 187 140 P_____________ AL041895 18.4423 -85.9002 TS 35 0 8 292
1895275N17277 1895 40 NA CS NOT_NAMED 1895-10-03 00:00:00 TS 18.6000 -86.3000 35 hurdat_atl main 140 95 O_____________ hurdat_atl AL041895 18.6000 -86.3000 TS 35 0 9 294
1895275N17277 1895 40 NA CS NOT_NAMED 1895-10-03 03:00:00 TS 18.8000 -86.7499 main 95 38 P_____________ AL041895 18.8000 -86.7499 TS 35 0 9 295
1895275N17277 1895 40 NA CS NOT_NAMED 1895-10-03 06:00:00 TS 19.0000 -87.2000 35 hurdat_atl main 38 0 O_____________ hurdat_atl AL041895 19.0000 -87.2000 TS 35 0 9 294
1895275N17277 1895 40 NA CS NOT_NAMED 1895-10-03 09:00:00 TS 19.1574 -87.6076 main 0 0 P_____________ AL041895 19.1574 -87.6076 TS 32 -1 8 292
1895275N17277 1895 40 NA NA NOT_NAMED 1895-10-03 12:00:00 TS 19.3000 -88.0000 30 hurdat_atl main 0 0 O_____________ hurdat_atl AL041895 19.3000 -88.0000 TD 30 -1 8 291
1895275N17277 1895 40 NA NA NOT_NAMED 1895-10-03 15:00:00 TS 19.4425 -88.4076 main 0 0 P_____________ AL041895 19.4425 -88.4076 TD 30 -1 8 292
1895275N17277 1895 40 NA NA NOT_NAMED 1895-10-03 18:00:00 TS 19.6000 -88.8000 30 hurdat_atl main 0 0 O_____________ hurdat_atl AL041895 19.6000 -88.8000 TD 30 -1 8 297
1895275N17277 1895 40 NA NA NOT_NAMED 1895-10-03 21:00:00 TS 19.7999 -89.1575 main 0 0 P_____________ AL041895 19.7999 -89.1575 TD 30 -1 8 301
1895275N17277 1895 40 NA NA NOT_NAMED 1895-10-04 00:00:00 TS 20.0000 -89.5000 30 hurdat_atl main 0 0 O_____________ hurdat_atl AL041895 20.0000 -89.5000 TD 30 -1 7 299
1895275N17277 1895 40 NA NA NOT_NAMED 1895-10-04 03:00:00 TS 20.1499 -89.8427 main 0 0 P_____________ AL041895 20.1499 -89.8427 TD 30 -1 7 295
1895275N17277 1895 40 NA NA NOT_NAMED 1895-10-04 06:00:00 TS 20.3000 -90.2000 30 hurdat_atl main 0 0 O_____________ hurdat_atl AL041895 20.3000 -90.2000 TD 30 -1 8 296
1895275N17277 1895 40 NA GM NOT_NAMED 1895-10-04 09:00:00 TS 20.4924 -90.5851 main 10 10 P_____________ AL041895 20.4924 -90.5851 TD 32 -1 9 298
1895275N17277 1895 40 NA GM NOT_NAMED 1895-10-04 12:00:00 TS 20.7000 -91.0000 35 hurdat_atl main 56 56 O_____________ hurdat_atl AL041895 20.7000 -91.0000 TS 35 0 9 297
1895275N17277 1895 40 NA GM NOT_NAMED 1895-10-04 15:00:00 TS 20.9074 -91.4425 main 103 103 P_____________ AL041895 20.9074 -91.4425 TS 35 0 9 295
1895275N17277 1895 40 NA GM NOT_NAMED 1895-10-04 18:00:00 TS 21.1000 -91.9000 35 hurdat_atl main 159 159 O_____________ hurdat_atl AL041895 21.1000 -91.9000 TS 35 0 9 292
1895275N17277 1895 40 NA GM NOT_NAMED 1895-10-04 21:00:00 TS 21.2498 -92.3428 main 202 202 P_____________ AL041895 21.2498 -92.3428 TS 35 0 9 290
1895275N17277 1895 40 NA GM NOT_NAMED 1895-10-05 00:00:00 TS 21.4000 -92.8000 35 hurdat_atl main 257 257 O_____________ hurdat_atl AL041895 21.4000 -92.8000 TS 35 0 10 291
1895275N17277 1895 40 NA GM NOT_NAMED 1895-10-05 03:00:00 TS 21.5925 -93.3000 main 313 313 P_____________ AL041895 21.5925 -93.3000 TS 35 0 10 293
1895275N17277 1895 40 NA GM NOT_NAMED 1895-10-05 06:00:00 TS 21.8000 -93.8000 35 hurdat_atl main 343 323 O_____________ hurdat_atl AL041895 21.8000 -93.8000 TS 35 0 10 294
1895275N17277 1895 40 NA GM NOT_NAMED 1895-10-05 09:00:00 TS 21.9999 -94.2651 main 312 276 P_____________ AL041895 21.9999 -94.2651 TS 35 0 9 296
1895275N17277 1895 40 NA GM NOT_NAMED 1895-10-05 12:00:00 TS 22.2000 -94.7000 35 hurdat_atl main 276 243 O_____________ hurdat_atl AL041895 22.2000 -94.7000 TS 35 0 9 296
1895275N17277 1895 40 NA GM NOT_NAMED 1895-10-05 15:00:00 TS 22.3850 -95.1301 main 243 216 P_____________ AL041895 22.3850 -95.1301 TS 35 0 8 298
1895275N17277 1895 40 NA GM NOT_NAMED 1895-10-05 18:00:00 TS 22.6000 -95.5000 35 hurdat_atl main 216 204 O_____________ hurdat_atl AL041895 22.6000 -95.5000 TS 35 0 8 309
1895275N17277 1895 40 NA GM NOT_NAMED 1895-10-05 21:00:00 TS 22.8774 -95.7876 main 204 183 P_____________ AL041895 22.8774 -95.7876 TS 35 0 8 322
1895275N17277 1895 40 NA GM NOT_NAMED 1895-10-06 00:00:00 TS 23.2000 -96.0000 35 hurdat_atl main 183 163 O_____________ hurdat_atl AL041895 23.2000 -96.0000 TS 35 0 8 332
1895275N17277 1895 40 NA GM NOT_NAMED 1895-10-06 03:00:00 TS 23.5350 -96.1726 main 163 152 P_____________ AL041895 23.5350 -96.1726 TS 35 0 8 339
1895275N17277 1895 40 NA GM NOT_NAMED 1895-10-06 06:00:00 TS 23.9000 -96.3000 35 hurdat_atl main 152 135 O_____________ hurdat_atl AL041895 23.9000 -96.3000 TS 35 0 8 342
1895275N17277 1895 40 NA GM NOT_NAMED 1895-10-06 09:00:00 TS 24.2625 -96.4299 main 133 106 P_____________ AL041895 24.2625 -96.4299 TS 35 0 8 347
1895275N17277 1895 40 NA GM NOT_NAMED 1895-10-06 12:00:00 TS 24.7000 -96.5000 35 hurdat_atl main 106 83 O_____________ hurdat_atl AL041895 24.7000 -96.5000 TS 35 0 10 355
1895275N17277 1895 40 NA GM NOT_NAMED 1895-10-06 15:00:00 TS 25.2248 -96.5241 main 83 68 P_____________ AL041895 25.2248 -96.5241 TS 35 0 12 4
1895275N17277 1895 40 NA GM NOT_NAMED 1895-10-06 18:00:00 TS 25.9000 -96.4000 35 hurdat_atl main 70 69 O_____________ hurdat_atl AL041895 25.9000 -96.4000 TS 35 0 15 15
1895275N17277 1895 40 NA GM NOT_NAMED 1895-10-06 21:00:00 TS 26.7027 -96.0855 main 126 111 P_____________ AL041895 26.7027 -96.0855 TS 35 0 19 22
1895275N17277 1895 40 NA GM NOT_NAMED 1895-10-07 00:00:00 TS 27.7000 -95.6000 35 hurdat_atl main 106 22 O_____________ hurdat_atl AL041895 27.7000 -95.6000 TS 35 0 24 23
1895275N17277 1895 40 NA GM NOT_NAMED 1895-10-07 03:00:00 TS 28.9295 -95.0074 main 22 11 P_____________ AL041895 28.9295 -95.0074 TS 35 0 26 24
1895275N17277 1895 40 NA GM NOT_NAMED 1895-10-07 04:00:00 TS 29.3000 -94.8000 35 hurdat_atl main 9 0 O_____________ hurdat_atl AL041895 29.3000 -94.8000 L TS 35 0 22 29
1895275N17277 1895 40 NA NA NOT_NAMED 1895-10-07 06:00:00 TS 29.9000 -94.4000 30 hurdat_atl main 0 0 O_____________ hurdat_atl AL041895 29.9000 -94.4000 TD 30 -1 24 31
1895275N17277 1895 40 NA NA NOT_NAMED 1895-10-07 09:00:00 TS 31.0369 -93.5930 main 0 0 P_____________ AL041895 31.0369 -93.5930 TD 27 -1 29 32
1895275N17277 1895 40 NA NA NOT_NAMED 1895-10-07 12:00:00 TS 32.4000 -92.6000 25 hurdat_atl main 0 O_____________ hurdat_atl AL041895 32.4000 -92.6000 TD 25 -1 32 32

About IBTrACS Database

This database is a web-friendly format of International Best Track Archive for Climate Stewardship (IBTrACS), a global best track data archive curated by NOAA dating back to 1842.

Updated: 2021-12-01